Bay City, Washington
Current Conditions -  °F | °C
As of 6:53 AM on Wednesday 22 Oct 2014 (Local Time) from KHQM Reporting Station
Overcast Overcast  
Wind Chill: 58°   Ceiling: 2000
Heat Index: 58°   Visibility: 7mi
Dew Point: 56°   Wind: 10mph
Humidity: 93%   Direction: 220°SW
Pressure: 29.67"   Gusts: NA
Location:  47.1445°N, 123.771°W
Report Text: KHQM 221353Z AUTO 22009KT 7SM SCT015 BKN020 OVC044 14/13 A2967 RMK AO2 RAE19 SLP049 P0006 T01440133
Loading
Personal Weather Stations






























Interactive Weather Map
Tropical Storm Tracking
New forecast layout! Learn more

10-Day Weather Forecast

Advertisements
Track Severe Weather on mobile